Time;durP1;ratioP1;P1;durP2;ratioP2;P2;SDS_P1;SDS_P2;PMS_P1;PMS_P2;Temp;Humidity;BMP_temperature;BMP_pressure;BME280_temperature;BME280_humidity;BME280_pressure;Samples;Min_cycle;Max_cycle;Signal;HPM_P1;HPM_P2
2020/12/25 00:00:17;;;;;;;2.55;1.57;;;;;;;4.89;85.09;95666.58;1737361;83;21506;-89
2020/12/25 00:02:45;;;;;;;1.85;1.20;;;;;;;4.90;85.17;95697.03;1737241;83;21107;-90
2020/12/25 00:05:12;;;;;;;1.80;1.00;;;;;;;4.54;84.18;95694.43;1737192;83;21134;-91
2020/12/25 00:07:39;;;;;;;1.35;1.00;;;;;;;4.23;84.74;95696.77;1737112;82;21150;-89
2020/12/25 00:10:06;;;;;;;1.57;1.30;;;;;;;3.98;85.49;95708.77;1737189;81;21518;-90
2020/12/25 00:12:33;;;;;;;1.80;1.02;;;;;;;3.85;85.92;95710.56;1737266;83;21142;-90
2020/12/25 00:15:00;;;;;;;2.27;1.20;;;;;;;3.72;86.36;95713.66;1737181;83;21312;-89
2020/12/25 00:17:27;;;;;;;3.35;1.17;;;;;;;3.58;86.54;95721.20;1737156;82;21268;-89
2020/12/25 00:19:54;;;;;;;1.42;0.98;;;;;;;3.45;86.54;95714.58;1737030;81;21504;-88
2020/12/25 00:22:22;;;;;;;1.00;0.85;;;;;;;3.31;86.50;95721.31;1737203;82;21268;-88
2020/12/25 00:24:49;;;;;;;3.08;1.17;;;;;;;3.23;86.21;95711.30;1737221;83;21283;-89
2020/12/25 00:27:16;;;;;;;1.57;0.90;;;;;;;3.15;86.50;95739.30;1737170;82;21289;-88
2020/12/25 00:29:43;;;;;;;1.87;1.20;;;;;;;3.09;86.50;95725.88;1737133;81;21285;-88
2020/12/25 00:32:10;;;;;;;1.37;0.90;;;;;;;3.04;86.41;95725.34;1737276;83;21289;-89
2020/12/25 00:34:37;;;;;;;1.50;1.10;;;;;;;2.97;86.48;95740.49;1737278;83;21286;-88
2020/12/25 00:37:04;;;;;;;1.87;1.25;;;;;;;2.89;86.61;95739.11;1737379;83;21155;-89
2020/12/25 00:39:31;;;;;;;1.82;1.47;;;;;;;2.82;86.62;95750.33;1737175;81;21280;-88
2020/12/25 00:41:58;;;;;;;2.05;1.07;;;;;;;2.78;86.73;95749.75;1737172;83;21123;-88
2020/12/25 00:44:25;;;;;;;2.05;1.05;;;;;;;2.76;86.94;95761.78;1737102;83;21129;-87
2020/12/25 00:46:52;;;;;;;2.70;1.65;;;;;;;2.72;87.04;95764.63;1737153;83;21107;-88
2020/12/25 00:49:19;;;;;;;2.37;1.32;;;;;;;2.70;86.96;95760.69;1736998;81;21302;-89
2020/12/25 00:51:47;;;;;;;2.20;1.40;;;;;;;2.67;86.71;95756.72;1739617;81;21165;-89
2020/12/25 00:54:14;;;;;;;1.62;1.22;;;;;;;2.65;86.56;95750.95;1745267;82;21130;-89
2020/12/25 00:56:41;;;;;;;3.02;1.75;;;;;;;2.61;86.55;95772.91;1745333;82;21162;-89
2020/12/25 00:59:08;;;;;;;1.82;1.50;;;;;;;2.59;86.70;95810.83;1745020;81;21162;-89
2020/12/25 01:01:37;;;;;;;2.62;1.65;;;;;;;2.54;86.80;95784.63;1745035;82;21526;-88
2020/12/25 01:04:04;;;;;;;3.65;1.92;;;;;;;2.50;86.92;95787.44;1745073;82;21510;-89
2020/12/25 01:06:32;;;;;;;2.27;1.55;;;;;;;2.46;87.11;95788.98;1745109;82;21494;-89
2020/12/25 01:08:59;;;;;;;2.47;1.90;;;;;;;2.42;87.32;95798.36;1744874;81;21183;-89
2020/12/25 01:11:26;;;;;;;3.10;2.00;;;;;;;2.37;87.53;95810.33;1745163;82;21138;-89
2020/12/25 01:13:54;;;;;;;2.75;1.80;;;;;;;2.32;87.80;95772.88;1744945;82;21099;-88
2020/12/25 01:16:21;;;;;;;3.98;2.67;;;;;;;2.27;87.89;95802.40;1745282;82;21138;-89
2020/12/25 01:18:50;;;;;;;2.52;1.77;;;;;;;2.24;87.83;95792.92;1745115;81;21158;-89
2020/12/25 01:21:17;;;;;;;4.00;2.08;;;;;;;2.21;88.04;95791.59;1744931;82;21135;-89
2020/12/25 01:23:45;;;;;;;4.05;3.00;;;;;;;2.19;87.96;95794.19;1745046;82;21202;-89
2020/12/25 01:26:12;;;;;;;4.75;3.05;;;;;;;2.19;87.83;95808.05;1745199;82;21518;-89
2020/12/25 01:28:40;;;;;;;2.92;2.00;;;;;;;2.21;87.81;95810.41;1744900;81;21454;-89
2020/12/25 01:31:07;;;;;;;3.60;2.98;;;;;;;2.19;87.62;95791.05;1745093;82;21509;-89
2020/12/25 01:33:35;;;;;;;4.12;2.50;;;;;;;2.17;87.62;95817.97;1744943;82;21142;-89
2020/12/25 01:36:05;;;;;;;3.33;2.33;;;;;;;2.09;87.59;95817.08;1745091;82;21525;-88
2020/12/25 01:38:33;;;;;;;3.22;2.35;;;;;;;2.03;87.87;95814.14;1744933;81;21122;-89
2020/12/25 01:41:01;;;;;;;4.60;2.60;;;;;;;1.99;87.94;95819.59;1744980;82;21525;-89
2020/12/25 01:43:28;;;;;;;3.00;2.02;;;;;;;1.97;87.85;95818.52;1744962;82;21146;-89
2020/12/25 01:45:55;;;;;;;4.20;2.60;;;;;;;1.95;87.87;95819.26;1744935;82;21137;-88
2020/12/25 01:48:23;;;;;;;5.05;3.00;;;;;;;1.93;87.96;95823.16;1745020;81;21486;-89
2020/12/25 01:50:52;;;;;;;3.67;2.55;;;;;;;1.95;88.03;95832.84;1744845;82;21510;-88
2020/12/25 01:53:22;;;;;;;4.67;3.12;;;;;;;1.96;88.20;95834.42;1744915;81;21174;-88
2020/12/25 01:55:50;;;;;;;4.80;2.85;;;;;;;1.98;88.13;95848.06;1745086;82;21138;-89
2020/12/25 01:58:18;;;;;;;6.50;3.47;;;;;;;1.97;88.20;95851.69;1715690;82;21146;-89
2020/12/25 02:00:48;;;;;;;2.52;2.10;;;;;;;1.98;88.36;95861.14;1744978;82;21138;-89
2020/12/25 02:03:19;;;;;;;4.67;2.87;;;;;;;1.98;88.45;95861.14;1745005;82;21134;-89
2020/12/25 02:05:46;;;;;;;3.58;2.15;;;;;;;1.95;88.73;95864.21;1745075;82;21130;-89
2020/12/25 02:08:15;;;;;;;3.70;2.02;;;;;;;1.93;88.96;95865.77;1744942;81;21180;-90
2020/12/25 02:10:43;;;;;;;4.42;2.62;;;;;;;1.90;89.14;95851.09;1744882;82;21122;-88
2020/12/25 02:13:11;;;;;;;3.72;3.10;;;;;;;1.88;89.30;95859.69;1744981;82;21497;-89
2020/12/25 02:15:39;;;;;;;2.92;2.17;;;;;;;1.85;89.50;95870.11;1715727;82;21153;-88
2020/12/25 02:18:06;;;;;;;2.65;2.00;;;;;;;1.85;89.65;95872.73;1744970;81;21150;-88
2020/12/25 02:20:33;;;;;;;3.67;2.80;;;;;;;1.85;89.77;95879.78;1744919;81;21115;-89
2020/12/25 02:23:00;;;;;;;3.85;2.37;;;;;;;1.84;89.90;95875.59;1745234;82;21110;-89
2020/12/25 02:25:27;;;;;;;5.62;3.20;;;;;;;1.84;89.98;95875.59;1744940;82;21130;-89
2020/12/25 02:27:54;;;;;;;5.87;3.20;;;;;;;1.84;90.07;95877.68;1744891;81;21150;-89
2020/12/25 02:30:22;;;;;;;4.05;2.12;;;;;;;1.83;90.23;95875.28;1744895;82;21158;-89
2020/12/25 02:32:50;;;;;;;5.08;2.55;;;;;;;1.81;90.38;95875.52;1745040;82;21190;-89
2020/12/25 02:35:18;;;;;;;3.62;1.85;;;;;;;1.82;90.43;95878.41;1745002;82;21145;-88
2020/12/25 02:37:45;;;;;;;4.90;2.75;;;;;;;1.82;90.49;95886.25;1744935;82;21135;-90
2020/12/25 02:40:12;;;;;;;2.27;1.90;;;;;;;1.83;90.61;95880.51;1744828;82;21142;-88
2020/12/25 02:42:39;;;;;;;5.80;2.70;;;;;;;1.82;90.59;95882.84;1745155;82;21111;-88
2020/12/25 02:45:07;;;;;;;3.00;1.95;;;;;;;1.82;90.67;95885.46;1744938;82;21126;-89
2020/12/25 02:47:34;;;;;;;3.52;2.50;;;;;;;1.82;90.74;95880.23;1744922;82;21118;-89
2020/12/25 02:50:01;;;;;;;3.22;1.82;;;;;;;1.81;90.72;95886.50;1744830;81;21506;-89
2020/12/25 02:52:28;;;;;;;6.35;2.90;;;;;;;1.81;90.61;95885.98;1742092;81;21203;-89
2020/12/25 02:54:55;;;;;;;2.75;2.37;;;;;;;1.82;90.65;95882.84;1737078;83;21133;-88
2020/12/25 02:57:22;;;;;;;4.37;2.85;;;;;;;1.81;90.73;95889.90;1737157;82;21301;-88
2020/12/25 02:59:49;;;;;;;5.15;2.83;;;;;;;1.81;90.73;95899.05;1750261;81;21142;-88
2020/12/25 03:02:17;;;;;;;3.72;2.20;;;;;;;1.83;90.61;95894.88;1767493;81;21130;-89
2020/12/25 03:04:45;;;;;;;4.45;2.83;;;;;;;1.83;90.72;95890.96;1767577;81;21272;-89
2020/12/25 03:07:13;;;;;;;5.65;3.55;;;;;;;1.83;90.73;95902.23;1767829;81;21281;-90
2020/12/25 03:09:40;;;;;;;5.10;3.70;;;;;;;1.83;90.71;95891.78;1767491;81;21563;-89
2020/12/25 03:12:08;;;;;;;6.25;3.30;;;;;;;1.83;90.74;95897.49;1767580;81;21289;-89
2020/12/25 03:14:36;;;;;;;5.72;3.33;;;;;;;1.84;90.71;95896.48;1767652;81;21631;-89
2020/12/25 03:17:03;;;;;;;4.40;3.55;;;;;;;1.84;90.80;95906.94;1767553;81;21166;-89
2020/12/25 03:19:30;;;;;;;3.25;2.80;;;;;;;1.85;90.67;95904.09;1759433;81;21296;-88
2020/12/25 03:21:57;;;;;;;5.42;3.15;;;;;;;1.90;90.76;95899.44;1737194;82;21229;-88
2020/12/25 03:24:24;;;;;;;4.72;2.70;;;;;;;1.89;90.77;95900.47;1737258;83;21274;-88
2020/12/25 03:26:52;;;;;;;5.00;3.42;;;;;;;1.88;90.81;95900.20;1737181;82;21103;-90
2020/12/25 03:29:19;;;;;;;8.50;3.47;;;;;;;1.85;90.93;95895.45;1737200;81;21652;-89
2020/12/25 03:31:47;;;;;;;2.27;1.77;;;;;;;1.83;91.08;95893.58;1737255;83;21640;-89
2020/12/25 03:34:15;;;;;;;3.05;2.33;;;;;;;1.81;91.17;95904.27;1737414;83;21146;-90
2020/12/25 03:36:42;;;;;;;6.08;3.33;;;;;;;1.79;91.28;95899.80;1737162;82;21284;-89
2020/12/25 03:39:11;;;;;;;5.08;3.10;;;;;;;1.79;91.26;95895.88;1737129;81;21142;-89
2020/12/25 03:41:38;;;;;;;4.55;2.90;;;;;;;1.78;91.28;95895.09;1737159;83;21140;-89
2020/12/25 03:44:05;;;;;;;2.85;2.33;;;;;;;1.82;91.11;95903.75;1737288;83;21277;-88
2020/12/25 03:46:35;;;;;;;5.67;3.12;;;;;;;1.87;91.10;95906.46;1737297;83;21162;-88
2020/12/25 03:49:06;;;;;;;4.00;2.62;;;;;;;1.89;90.95;95914.33;1737212;81;21134;-89
2020/12/25 03:51:34;;;;;;;3.27;2.30;;;;;;;1.92;90.85;95915.67;1737254;83;21269;-89
2020/12/25 03:54:00;;;;;;;4.00;2.20;;;;;;;1.92;90.76;95911.23;1744174;81;21154;-88
2020/12/25 03:56:28;;;;;;;3.77;1.92;;;;;;;1.95;90.58;95919.09;1745044;81;21477;-89
2020/12/25 03:58:55;;;;;;;5.03;2.40;;;;;;;1.96;90.59;95916.77;1745087;81;21506;-88
2020/12/25 04:01:22;;;;;;;4.35;2.25;;;;;;;1.95;90.52;95925.63;1745110;82;21106;-88
2020/12/25 04:03:49;;;;;;;4.25;2.25;;;;;;;2.00;90.42;95921.80;1745345;82;21166;-88
2020/12/25 04:06:16;;;;;;;2.85;1.95;;;;;;;2.05;90.33;95924.48;1745042;82;21167;-89
2020/12/25 04:08:45;;;;;;;2.95;2.00;;;;;;;2.06;90.27;95925.55;1745019;81;21486;-89
2020/12/25 04:11:12;;;;;;;3.60;2.50;;;;;;;2.07;90.12;95928.95;1745013;82;21145;-88
2020/12/25 04:13:40;;;;;;;3.83;2.40;;;;;;;2.10;90.13;95931.07;1745344;82;21162;-89
2020/12/25 04:16:07;;;;;;;4.65;2.80;;;;;;;2.12;90.07;95932.16;1745003;82;21107;-88
2020/12/25 04:18:34;;;;;;;3.12;2.10;;;;;;;2.15;89.95;95939.00;1745112;81;21489;-88
2020/12/25 04:21:01;;;;;;;3.85;2.02;;;;;;;2.16;89.96;95939.28;1744977;82;21154;-88
2020/12/25 04:23:28;;;;;;;2.87;1.82;;;;;;;2.20;89.91;95942.98;1745020;82;21123;-88
2020/12/25 04:25:56;;;;;;;2.80;1.98;;;;;;;2.18;89.77;95941.65;1745089;82;21142;-88
2020/12/25 04:28:23;;;;;;;3.47;2.35;;;;;;;2.16;89.75;95941.89;1745079;81;21490;-88
2020/12/25 04:30:50;;;;;;;3.52;2.70;;;;;;;2.16;89.77;95939.28;1745027;82;21514;-89
2020/12/25 04:33:17;;;;;;;3.65;2.58;;;;;;;2.14;89.68;95941.34;1745049;82;21133;-88
2020/12/25 04:35:44;;;;;;;4.92;2.55;;;;;;;2.12;89.70;95938.19;1745072;81;21513;-88
2020/12/25 04:38:11;;;;;;;3.25;2.40;;;;;;;2.11;89.69;95946.23;1745004;81;21546;-89
2020/12/25 04:40:38;;;;;;;3.98;2.33;;;;;;;2.13;89.81;95952.05;1745028;82;21111;-89
2020/12/25 04:43:06;;;;;;;4.00;2.77;;;;;;;2.16;89.80;95952.87;1745051;82;21137;-88
2020/12/25 04:45:33;;;;;;;4.00;3.00;;;;;;;2.19;89.81;95951.86;1745324;82;21162;-89
2020/12/25 04:48:00;;;;;;;1.65;1.55;;;;;;;2.22;89.74;95950.06;1744939;81;21118;-88
2020/12/25 04:50:27;;;;;;;2.62;1.65;;;;;;;2.16;89.61;95958.09;1745026;82;21525;-89
2020/12/25 04:52:54;;;;;;;2.62;1.95;;;;;;;2.08;89.57;95955.36;1723394;81;21182;-89
2020/12/25 04:55:22;;;;;;;3.85;1.90;;;;;;;1.99;89.64;95946.36;1767214;81;21139;-88
2020/12/25 04:57:49;;;;;;;3.22;1.82;;;;;;;1.90;89.89;95960.34;1767134;80;21475;-89
2020/12/25 05:00:22;;;;;;;4.28;1.98;;;;;;;1.86;89.83;95959.24;1767167;81;21147;-88
2020/12/25 05:02:51;;;;;;;1.70;1.42;;;;;;;1.88;89.97;95966.84;1767243;81;21535;-88
2020/12/25 05:05:26;;;;;;;2.50;1.72;;;;;;;1.86;89.81;95972.31;1767373;81;21483;-90
2020/12/25 05:07:53;;;;;;;3.12;1.50;;;;;;;1.90;89.75;95974.72;1766428;80;21563;-90
2020/12/25 05:10:20;;;;;;;4.05;2.33;;;;;;;1.98;89.69;95978.25;1767171;81;21115;-89
2020/12/25 05:12:48;;;;;;;3.05;2.37;;;;;;;1.99;89.63;95988.19;1767216;81;21221;-88
2020/12/25 05:15:15;;;;;;;3.45;2.40;;;;;;;2.05;89.61;95988.53;1767236;81;21115;-89
2020/12/25 05:17:43;;;;;;;4.90;2.98;;;;;;;1.97;89.37;95981.89;1767225;81;21531;-89
2020/12/25 05:20:11;;;;;;;7.28;3.67;;;;;;;1.87;89.32;95997.93;1767156;80;21181;-89
2020/12/25 05:22:39;;;;;;;5.95;3.30;;;;;;;1.73;89.38;95987.79;1767254;81;21159;-88
2020/12/25 05:25:08;;;;;;;3.95;3.25;;;;;;;1.69;89.64;95992.40;1767241;80;21503;-88
2020/12/25 05:27:35;;;;;;;5.30;2.98;;;;;;;1.64;89.74;96006.19;1767080;81;21120;-88
2020/12/25 05:30:06;;;;;;;4.03;3.08;;;;;;;1.68;89.86;95998.14;1767186;80;21515;-88
2020/12/25 05:32:35;;;;;;;4.15;2.92;;;;;;;1.74;89.90;96006.36;1767167;81;21095;-89
2020/12/25 05:35:03;;;;;;;5.28;3.62;;;;;;;1.83;89.90;96008.08;1767138;81;21139;-88
2020/12/25 05:37:38;;;;;;;3.70;3.27;;;;;;;1.87;89.89;96011.00;1767299;81;21159;-88
2020/12/25 05:40:08;;;;;;;6.70;3.98;;;;;;;1.92;89.99;96007.14;1767341;80;21516;-88
2020/12/25 05:42:50;;;;;;;8.48;4.65;;;;;;;1.93;89.91;96015.27;1767350;80;21554;-89
2020/12/25 05:45:19;;;;;;;5.97;4.10;;;;;;;1.91;89.87;96014.71;1767409;81;21154;-88
2020/12/25 05:47:50;;;;;;;4.45;3.40;;;;;;;1.86;89.81;96019.36;1767524;81;21174;-89
2020/12/25 05:50:20;;;;;;;5.70;4.30;;;;;;;1.89;89.91;96027.23;1763703;81;21146;-89
2020/12/25 05:52:48;;;;;;;;;;;;;;;1.83;89.87;96032.08;1769622;81;21511;-89
2020/12/25 05:55:18;;;;;;;6.45;3.75;;;;;;;1.79;89.89;96033.08;1766766;81;20137;-89
2020/12/25 05:57:51;;;;;;;;;;;;;;;1.83;89.99;96034.69;1769287;81;21514;-88
2020/12/25 06:00:21;;;;;;;7.05;4.22;;;;;;;1.86;90.05;96041.57;1766155;81;20410;-88
2020/12/25 06:02:50;;;;;;;5.22;3.55;;;;;;;1.84;89.94;96046.76;1766716;81;21115;-89
2020/12/25 06:05:20;;;;;;;4.62;2.87;;;;;;;1.82;89.90;96057.94;1766783;81;21147;-89
2020/12/25 06:07:56;;;;;;;4.62;3.10;;;;;;;1.84;89.87;96054.59;1766761;81;21487;-88
2020/12/25 06:10:27;;;;;;;4.92;3.62;;;;;;;1.92;89.93;96059.42;1766796;81;21135;-89
2020/12/25 06:12:56;;;;;;;;;;;;;;;1.97;89.83;96058.19;1769283;81;21486;-88
2020/12/25 06:15:32;;;;;;;7.15;4.78;;;;;;;1.92;89.61;96063.34;1766724;81;20121;-88
2020/12/25 06:18:47;;;;;;;8.00;3.72;;;;;;;1.89;89.62;96062.00;1766609;80;21539;-89
2020/12/25 06:21:26;;;;;;;7.65;4.70;;;;;;;1.88;89.70;96062.23;1766562;81;21140;-90
2020/12/25 06:23:54;;;;;;;5.17;3.95;;;;;;;1.75;89.72;96060.20;1753225;81;21171;-89
2020/12/25 06:26:21;;;;;;;4.70;3.77;;;;;;;1.73;89.88;96062.26;1766617;81;21147;-89
2020/12/25 06:28:49;;;;;;;5.42;3.90;;;;;;;1.68;89.67;96063.97;1740729;81;21138;-89
2020/12/25 06:31:44;;;;;;;5.33;3.70;;;;;;;1.64;89.88;96061.56;1766874;81;21111;-88
2020/12/25 06:34:12;;;;;;;6.17;4.17;;;;;;;1.61;89.82;96056.81;1766526;81;21135;-89
2020/12/25 06:36:47;;;;;;;6.17;3.35;;;;;;;1.60;89.95;96064.38;1740862;81;21167;-90
2020/12/25 06:39:19;;;;;;;3.92;3.37;;;;;;;1.57;90.06;96070.86;1766573;80;21185;-89
2020/12/25 06:41:47;;;;;;;4.80;3.67;;;;;;;1.57;90.28;96074.78;1766607;81;21522;-89
2020/12/25 06:44:17;;;;;;;7.15;4.15;;;;;;;1.59;90.35;96077.16;1766606;81;21649;-89
2020/12/25 06:46:49;;;;;;;;;;;;;;;1.60;90.31;96082.14;1769503;81;21122;-89
2020/12/25 06:49:22;;;;;;;4.85;4.17;;;;;;;1.61;90.23;96079.81;1766070;80;21673;-89
2020/12/25 06:51:49;;;;;;;6.62;3.77;;;;;;;1.63;90.21;96090.81;1766825;81;21112;-90
2020/12/25 06:54:20;;;;;;;6.40;4.42;;;;;;;1.64;90.19;96087.17;1766565;81;21162;-89
2020/12/25 06:56:55;;;;;;;6.03;4.20;;;;;;;1.64;90.25;96082.46;1766622;81;21122;-90
2020/12/25 06:59:24;;;;;;;6.25;4.87;;;;;;;1.63;90.23;96093.42;1766558;80;21148;-89
2020/12/25 07:01:52;;;;;;;5.12;4.05;;;;;;;1.65;90.23;96093.98;1766559;81;21273;-89
2020/12/25 07:04:32;;;;;;;6.47;3.62;;;;;;;1.68;90.15;96100.03;1766611;81;21530;-89
2020/12/25 07:07:04;;;;;;;6.60;4.45;;;;;;;1.71;90.14;96096.19;1766877;81;21167;-89
2020/12/25 07:09:44;;;;;;;6.17;5.00;;;;;;;1.74;90.15;96103.55;1766461;80;21547;-89
2020/12/25 07:12:21;;;;;;;5.75;4.53;;;;;;;1.75;90.15;96095.48;1766713;81;21313;-89
2020/12/25 07:14:49;;;;;;;6.72;4.20;;;;;;;1.75;90.03;96111.67;1766898;81;21131;-89
2020/12/25 07:17:17;;;;;;;5.35;4.35;;;;;;;1.74;89.93;96112.19;1766545;81;21135;-89
2020/12/25 07:19:44;;;;;;;5.28;4.12;;;;;;;1.73;89.89;96121.05;1766431;80;21192;-88
2020/12/25 07:22:12;;;;;;;6.85;4.55;;;;;;;1.72;89.91;96112.14;1766659;81;21510;-89
2020/12/25 07:24:41;;;;;;;5.15;3.92;;;;;;;1.73;89.90;96123.66;1766515;81;21498;-89
2020/12/25 07:27:13;;;;;;;5.42;4.30;;;;;;;1.73;89.93;96117.65;1766589;80;21115;-89
2020/12/25 07:29:43;;;;;;;5.25;4.22;;;;;;;1.72;89.87;96123.39;1766530;80;21306;-90
2020/12/25 07:32:13;;;;;;;5.85;4.10;;;;;;;1.75;89.85;96126.04;1766809;81;21142;-89
2020/12/25 07:34:40;;;;;;;5.53;4.37;;;;;;;1.81;89.84;96124.30;1766605;81;21562;-89
2020/12/25 07:37:10;;;;;;;6.90;3.92;;;;;;;1.85;89.83;96131.46;1766846;81;21178;-88
2020/12/25 07:39:37;;;;;;;5.15;4.15;;;;;;;1.89;89.70;96135.70;1766568;80;21181;-90
2020/12/25 07:42:08;;;;;;;5.72;4.12;;;;;;;1.92;89.59;96140.45;1766634;81;21482;-88
2020/12/25 07:44:36;;;;;;;5.33;3.87;;;;;;;1.94;89.45;96133.16;1766317;81;21155;-89
2020/12/25 07:47:03;;;;;;;5.05;3.72;;;;;;;1.95;89.23;96136.05;1766749;81;21139;-89
2020/12/25 07:49:30;;;;;;;7.65;4.33;;;;;;;1.94;89.06;96134.47;1766371;80;21138;-88
2020/12/25 07:51:59;;;;;;;5.05;3.58;;;;;;;1.91;88.98;96141.48;1766721;81;21296;-89
2020/12/25 07:54:28;;;;;;;5.50;3.77;;;;;;;1.85;89.07;96143.73;1753388;81;21130;-90
2020/12/25 07:56:56;;;;;;;7.35;4.58;;;;;;;1.84;88.96;96149.48;1745103;82;21153;-89
2020/12/25 07:59:26;;;;;;;5.30;3.95;;;;;;;1.84;89.09;96148.69;1745079;81;21134;-90
2020/12/25 08:01:53;;;;;;;6.67;4.58;;;;;;;1.86;89.16;96147.42;1745184;82;21158;-89
2020/12/25 08:04:20;;;;;;;7.87;4.83;;;;;;;1.87;89.12;96149.00;1745101;82;21509;-90
2020/12/25 08:06:48;;;;;;;7.45;4.22;;;;;;;1.92;89.17;96152.21;1745162;82;21142;-90
2020/12/25 08:09:17;;;;;;;6.55;4.00;;;;;;;1.95;89.04;96153.04;1744938;81;21177;-89
2020/12/25 08:11:44;;;;;;;7.97;4.20;;;;;;;1.94;88.92;96155.38;1716437;82;21152;-89
2020/12/25 08:14:15;;;;;;;6.58;4.62;;;;;;;1.96;88.92;96153.32;1744968;82;21800;-89
2020/12/25 08:16:45;;;;;;;7.28;4.05;;;;;;;1.97;88.77;96159.65;1745160;82;21481;-89
2020/12/25 08:19:14;;;;;;;6.08;3.98;;;;;;;1.99;88.68;96156.80;1716288;82;21144;-90
2020/12/25 08:21:41;;;;;;;6.95;4.00;;;;;;;2.03;88.65;96154.77;1745267;82;21111;-89
2020/12/25 08:24:09;;;;;;;6.22;4.22;;;;;;;2.08;88.44;96160.59;1744984;82;21137;-90
2020/12/25 08:26:40;;;;;;;6.65;4.10;;;;;;;2.12;88.44;96170.09;1745152;82;21517;-89
2020/12/25 08:29:08;;;;;;;;;;;;;;;2.16;88.59;96160.23;1747503;81;21134;-90
2020/12/25 08:31:38;;;;;;;6.62;3.45;;;;;;;2.14;88.36;96174.05;1745107;81;20129;-90
2020/12/25 08:34:09;;;;;;;6.47;3.92;;;;;;;2.06;87.79;96177.03;1745444;82;21134;-89
2020/12/25 08:36:36;;;;;;;6.58;4.60;;;;;;;1.99;87.79;96190.27;1745340;82;21152;-88
2020/12/25 08:39:03;;;;;;;8.88;5.22;;;;;;;2.02;88.09;96187.69;1745002;81;21154;-89
2020/12/25 08:41:30;;;;;;;7.65;5.03;;;;;;;2.03;88.10;96193.20;1745150;82;21134;-89
2020/12/25 08:44:13;;;;;;;7.58;4.80;;;;;;;2.03;88.20;96199.22;1744962;82;21134;-89
2020/12/25 08:46:41;;;;;;;8.03;4.30;;;;;;;2.01;88.19;96202.58;1745344;82;21135;-89
2020/12/25 08:49:09;;;;;;;7.75;4.50;;;;;;;2.03;88.28;96207.06;1744798;81;21142;-89
2020/12/25 08:51:39;;;;;;;10.68;6.20;;;;;;;2.06;88.23;96211.02;1745319;82;21127;-90
2020/12/25 08:54:07;;;;;;;6.17;4.10;;;;;;;2.03;88.20;96218.03;1745148;82;21123;-90
2020/12/25 08:56:37;;;;;;;20.37;10.90;;;;;;;2.05;88.12;96214.16;1745033;82;21272;-89
2020/12/25 08:59:09;;;;;;;6.22;4.33;;;;;;;2.02;87.97;96216.45;1744898;81;21145;-90
2020/12/25 09:01:39;;;;;;;6.67;4.33;;;;;;;1.94;87.84;96218.11;1745008;82;21284;-89
2020/12/25 09:04:15;;;;;;;5.45;3.70;;;;;;;1.96;88.13;96219.46;1745207;82;21525;-90
2020/12/25 09:06:43;;;;;;;6.40;4.70;;;;;;;2.07;88.32;96216.53;1744491;82;21526;-89
2020/12/25 09:09:11;;;;;;;6.75;4.47;;;;;;;2.06;88.00;96211.02;1744874;81;21164;-90
2020/12/25 09:11:38;;;;;;;7.90;4.17;;;;;;;2.04;88.09;96205.23;1745310;82;21142;-89
2020/12/25 09:14:05;;;;;;;5.60;3.70;;;;;;;1.99;87.99;96215.61;1745048;82;21154;-89
2020/12/25 09:16:33;;;;;;;6.25;3.85;;;;;;;1.98;87.84;96206.98;1745005;82;21138;-88
2020/12/25 09:19:00;;;;;;;7.75;4.85;;;;;;;1.94;87.91;96212.37;1744798;81;21161;-89
2020/12/25 09:21:28;;;;;;;7.80;4.80;;;;;;;1.96;88.17;96213.44;1745308;82;21138;-90
2020/12/25 09:23:56;;;;;;;8.03;4.20;;;;;;;1.99;88.12;96212.48;1744953;82;21134;-88
2020/12/25 09:26:23;;;;;;;7.25;4.67;;;;;;;1.94;87.94;96218.11;1745062;82;21145;-89
2020/12/25 09:28:51;;;;;;;7.83;5.25;;;;;;;1.91;88.03;96219.38;1744900;81;21143;-90
2020/12/25 09:31:18;;;;;;;6.78;4.28;;;;;;;1.94;88.16;96219.42;1745037;82;21490;-89
2020/12/25 09:33:45;;;;;;;8.50;4.53;;;;;;;2.00;88.27;96221.13;1745016;82;21153;-89
2020/12/25 09:36:12;;;;;;;7.75;4.60;;;;;;;2.09;88.27;96219.70;1745034;82;21133;-89
2020/12/25 09:38:43;;;;;;;6.40;4.67;;;;;;;2.10;88.11;96221.28;1744956;81;21253;-89
2020/12/25 09:41:13;;;;;;;7.70;4.60;;;;;;;2.10;88.05;96225.20;1744925;82;21146;-89
2020/12/25 09:43:42;;;;;;;8.30;4.83;;;;;;;2.07;87.88;96229.60;1745450;82;21125;-89
2020/12/25 09:46:10;;;;;;;7.58;4.90;;;;;;;1.97;87.74;96222.39;1744967;82;21158;-89
2020/12/25 09:48:38;;;;;;;6.67;3.83;;;;;;;2.04;88.00;96219.62;1745225;81;21106;-89
2020/12/25 09:51:06;;;;;;;8.25;4.70;;;;;;;2.15;88.17;96226.63;1744845;82;21142;-89
2020/12/25 09:53:34;;;;;;;7.87;4.90;;;;;;;2.12;87.89;96228.41;1745132;81;21534;-88
2020/12/25 09:56:01;;;;;;;10.10;4.85;;;;;;;2.11;87.83;96222.08;1737104;82;21281;-88
2020/12/25 09:58:28;;;;;;;7.53;5.15;;;;;;;2.19;87.98;96229.05;1737295;81;21280;-89
2020/12/25 10:00:55;;;;;;;8.88;5.67;;;;;;;2.26;88.02;96223.69;1737145;83;21107;-89
2020/12/25 10:03:24;;;;;;;8.83;5.00;;;;;;;2.29;88.02;96226.63;1737118;82;21126;-90
2020/12/25 10:05:51;;;;;;;9.10;5.45;;;;;;;2.36;87.94;96222.02;1737177;82;21257;-90
2020/12/25 10:08:18;;;;;;;8.40;5.00;;;;;;;2.35;87.80;96226.98;1737068;81;21134;-89
2020/12/25 10:10:45;;;;;;;8.80;5.90;;;;;;;2.30;87.54;96231.34;1736996;83;21133;-89
2020/12/25 10:13:12;;;;;;;9.63;5.53;;;;;;;2.25;87.45;96237.77;1737152;83;21627;-89
2020/12/25 10:15:39;;;;;;;8.48;5.35;;;;;;;2.27;87.62;96233.91;1737129;82;21652;-89
2020/12/25 10:18:07;;;;;;;7.33;4.45;;;;;;;2.22;87.30;96229.88;1737077;81;21140;-90
2020/12/25 10:20:34;;;;;;;5.90;4.20;;;;;;;2.14;87.17;96232.89;1736930;83;21128;-89
2020/12/25 10:23:01;;;;;;;4.85;3.65;;;;;;;2.01;86.72;96237.88;1737181;83;21137;-89
2020/12/25 10:25:28;;;;;;;5.72;3.47;;;;;;;1.96;87.07;96242.20;1736997;82;21126;-89
2020/12/25 10:27:55;;;;;;;4.87;3.80;;;;;;;1.98;87.13;96242.27;1737044;81;21151;-90
2020/12/25 10:30:22;;;;;;;6.28;4.05;;;;;;;1.93;87.16;96239.54;1737061;83;21505;-89
2020/12/25 10:32:49;;;;;;;5.45;3.45;;;;;;;1.90;87.09;96247.06;1737186;83;21154;-90
2020/12/25 10:35:17;;;;;;;6.47;3.65;;;;;;;1.93;87.05;96242.66;1737200;82;21135;-89
2020/12/25 10:37:44;;;;;;;8.13;4.17;;;;;;;1.96;87.17;96252.66;1737356;83;21288;-89
2020/12/25 10:40:11;;;;;;;7.28;4.53;;;;;;;2.02;87.25;96253.05;1736946;81;21146;-89
2020/12/25 10:42:38;;;;;;;5.50;4.03;;;;;;;2.07;87.40;96258.36;1737176;82;21506;-89
2020/12/25 10:45:06;;;;;;;5.20;3.30;;;;;;;2.16;87.52;96261.41;1712215;83;21141;-89
2020/12/25 10:47:35;;;;;;;5.72;3.42;;;;;;;2.20;87.32;96258.09;1737144;83;21150;-89
2020/12/25 10:50:02;;;;;;;5.22;3.17;;;;;;;2.23;87.28;96261.54;1736885;81;21115;-89
2020/12/25 10:52:30;;;;;;;3.62;2.70;;;;;;;2.25;87.01;96265.23;1737188;83;21320;-90
2020/12/25 10:54:57;;;;;;;5.15;3.87;;;;;;;2.22;86.80;96261.26;1750029;81;21183;-89
2020/12/25 10:57:24;;;;;;;6.50;4.08;;;;;;;2.31;86.96;96257.25;1766589;81;21661;-89
2020/12/25 10:59:51;;;;;;;6.28;3.60;;;;;;;2.40;86.98;96260.81;1766449;80;21128;-89
2020/12/25 11:02:19;;;;;;;5.67;3.95;;;;;;;2.48;87.07;96265.65;1766776;81;21146;-89
2020/12/25 11:04:46;;;;;;;8.35;5.60;;;;;;;2.52;86.99;96261.01;1766582;81;21170;-90
2020/12/25 11:07:13;;;;;;;8.63;5.55;;;;;;;2.58;86.90;96260.09;1766532;81;21147;-89
2020/12/25 11:09:41;;;;;;;7.33;4.65;;;;;;;2.61;86.96;96258.30;1766651;80;21509;-90
2020/12/25 11:12:09;;;;;;;8.20;4.85;;;;;;;2.68;86.76;96258.16;1766549;81;21130;-89
2020/12/25 11:14:36;;;;;;;8.88;5.00;;;;;;;2.69;86.45;96254.52;1766573;81;21154;-89
2020/12/25 11:17:03;;;;;;;10.53;5.72;;;;;;;2.64;86.22;96251.80;1766632;81;21636;-89
2020/12/25 11:19:30;;;;;;;8.43;5.67;;;;;;;2.61;86.47;96253.58;1766624;80;21589;-90
2020/12/25 11:21:58;;;;;;;7.80;4.58;;;;;;;2.65;86.70;96259.41;1766591;81;21134;-89
2020/12/25 11:24:25;;;;;;;5.50;4.00;;;;;;;2.67;86.68;96259.98;1766690;80;21150;-89
2020/12/25 11:26:52;;;;;;;4.30;3.30;;;;;;;2.69;86.49;96258.44;1766699;81;21550;-90
2020/12/25 11:29:19;;;;;;;5.12;3.80;;;;;;;2.77;86.18;96259.86;1766811;80;21155;-89
2020/12/25 11:31:46;;;;;;;5.58;3.67;;;;;;;2.73;86.06;96256.13;1766688;81;21135;-90
2020/12/25 11:34:13;;;;;;;6.33;3.87;;;;;;;2.78;86.20;96253.08;1766759;81;21559;-90
2020/12/25 11:36:41;;;;;;;3.85;3.22;;;;;;;2.81;86.16;96251.80;1766779;81;21143;-90
2020/12/25 11:39:08;;;;;;;5.00;3.45;;;;;;;2.85;85.98;96252.42;1766719;80;21467;-89
2020/12/25 11:41:36;;;;;;;5.28;3.30;;;;;;;2.78;85.68;96255.69;1766697;81;21150;-89
2020/12/25 11:44:03;;;;;;;6.08;3.17;;;;;;;2.78;85.76;96258.31;1766741;81;21277;-90
2020/12/25 11:46:31;;;;;;;3.50;2.65;;;;;;;2.77;85.65;96259.34;1766943;81;21167;-90
2020/12/25 11:48:59;;;;;;;4.90;3.20;;;;;;;2.78;85.61;96260.93;1766627;80;21155;-90